createdAt,value
2022-08-30T00:01:32.165Z,2.00
2022-08-30T00:04:01.713Z,2.10
2022-08-30T00:06:30.472Z,2.25
2022-08-30T00:08:57.580Z,2.22
2022-08-30T00:11:27.747Z,1.90
2022-08-30T00:13:56.786Z,1.55
2022-08-30T00:16:26.366Z,1.80
2022-08-30T00:18:54.462Z,1.85
2022-08-30T00:21:22.260Z,1.90
2022-08-30T00:23:49.220Z,2.05
2022-08-30T00:26:16.519Z,1.73
2022-08-30T00:28:43.460Z,1.63
2022-08-30T00:31:10.670Z,1.58
2022-08-30T00:33:42.395Z,1.80
2022-08-30T00:36:09.432Z,1.42
2022-08-30T00:38:36.337Z,1.60
2022-08-30T00:41:03.361Z,1.55
2022-08-30T00:43:34.816Z,1.65
2022-08-30T00:46:08.138Z,1.60
2022-08-30T00:48:42.726Z,1.80
2022-08-30T00:51:15.524Z,1.92
2022-08-30T00:53:48.542Z,1.60
2022-08-30T00:56:17.858Z,1.90
2022-08-30T00:58:50.462Z,1.70
2022-08-30T01:01:19.038Z,1.50
2022-08-30T01:03:47.573Z,1.60
2022-08-30T01:06:15.702Z,1.50
2022-08-30T01:08:44.902Z,1.52
2022-08-30T01:11:16.990Z,1.40
2022-08-30T01:13:47.318Z,1.48
2022-08-30T01:16:15.099Z,1.40
2022-08-30T01:18:43.702Z,1.63
2022-08-30T01:21:27.398Z,1.95
2022-08-30T01:23:58.460Z,1.55
2022-08-30T01:26:28.683Z,1.30
2022-08-30T01:29:01.418Z,1.70
2022-08-30T01:31:28.360Z,1.30
2022-08-30T01:33:55.350Z,1.45
2022-08-30T01:36:22.609Z,1.40
2022-08-30T01:38:56.832Z,1.40
2022-08-30T01:41:32.075Z,1.58
2022-08-30T01:44:07.848Z,1.30
2022-08-30T01:46:40.463Z,1.50
2022-08-30T01:49:13.601Z,1.58
2022-08-30T01:51:44.249Z,1.60
2022-08-30T01:54:11.869Z,1.60
2022-08-30T01:56:39.453Z,1.58
2022-08-30T01:59:06.810Z,1.50
2022-08-30T02:01:36.987Z,1.50
2022-08-30T02:04:05.249Z,1.40
2022-08-30T02:06:32.316Z,1.30
2022-08-30T02:09:00.089Z,1.42
2022-08-30T02:11:36.061Z,1.42
2022-08-30T02:14:02.974Z,1.67
2022-08-30T02:16:30.169Z,1.48
2022-08-30T02:18:57.440Z,1.67
2022-08-30T02:21:27.653Z,1.35
2022-08-30T02:23:55.270Z,1.80
2022-08-30T02:26:22.361Z,1.35
2022-08-30T02:28:50.485Z,1.70
2022-08-30T02:31:20.946Z,1.88
2022-08-30T02:33:51.317Z,1.50
2022-08-30T02:36:20.716Z,1.50
2022-08-30T02:38:50.159Z,1.88
2022-08-30T02:41:18.740Z,1.73
2022-08-30T02:43:46.105Z,1.73
2022-08-30T02:46:13.668Z,1.77
2022-08-30T02:48:40.586Z,1.55
2022-08-30T02:51:11.882Z,1.30
2022-08-30T02:53:41.667Z,1.52
2022-08-30T02:56:08.674Z,1.65
2022-08-30T02:58:36.821Z,1.60
2022-08-30T03:01:05.554Z,1.52
2022-08-30T03:03:32.655Z,1.50
2022-08-30T03:05:59.825Z,1.75
2022-08-30T03:08:26.708Z,2.15
2022-08-30T03:10:53.620Z,1.70
2022-08-30T03:13:21.086Z,2.05
2022-08-30T03:15:50.324Z,1.73
2022-08-30T03:18:21.180Z,1.60
2022-08-30T03:20:53.997Z,1.90
2022-08-30T03:23:23.532Z,1.98
2022-08-30T03:25:50.690Z,1.70
2022-08-30T03:28:17.729Z,1.60
2022-08-30T03:30:44.619Z,1.75
2022-08-30T03:33:11.604Z,1.50
2022-08-30T03:35:38.677Z,1.92
2022-08-30T03:38:06.362Z,1.83
2022-08-30T03:40:33.594Z,2.00
2022-08-30T03:43:00.985Z,1.73
2022-08-30T03:45:28.343Z,1.60
2022-08-30T03:47:55.384Z,1.90
2022-08-30T03:50:22.442Z,1.75
2022-08-30T03:52:49.332Z,1.85
2022-08-30T03:55:16.821Z,1.90
2022-08-30T03:57:43.884Z,1.75
2022-08-30T04:00:14.204Z,1.85
2022-08-30T04:02:41.720Z,2.17
2022-08-30T04:05:11.277Z,1.80
2022-08-30T04:07:39.339Z,1.95
2022-08-30T04:10:09.115Z,1.70
2022-08-30T04:12:38.478Z,1.90
2022-08-30T04:15:07.639Z,2.22
2022-08-30T04:17:34.589Z,1.90
2022-08-30T04:20:01.541Z,2.20
2022-08-30T04:22:28.368Z,1.85
2022-08-30T04:24:55.542Z,2.20
2022-08-30T04:27:22.536Z,2.00
2022-08-30T04:29:49.594Z,2.10
2022-08-30T04:32:17.091Z,2.20
2022-08-30T04:34:44.605Z,2.30
2022-08-30T04:37:11.543Z,2.10
2022-08-30T04:39:38.790Z,1.85
2022-08-30T04:42:06.899Z,2.13
2022-08-30T04:44:36.122Z,2.40
2022-08-30T04:47:03.042Z,2.33
2022-08-30T04:49:30.176Z,2.22
2022-08-30T04:51:57.097Z,2.45
2022-08-30T04:54:24.038Z,2.20
2022-08-30T04:56:50.894Z,2.28
2022-08-30T04:59:17.826Z,1.90
2022-08-30T05:01:46.092Z,2.05
2022-08-30T05:04:15.126Z,2.60
2022-08-30T05:06:42.586Z,2.47
2022-08-30T05:09:09.638Z,2.40
2022-08-30T05:11:38.109Z,2.38
2022-08-30T05:14:06.147Z,2.13
2022-08-30T05:16:33.342Z,2.15
2022-08-30T05:19:00.672Z,2.40
2022-08-30T05:21:29.387Z,2.55
2022-08-30T05:24:00.004Z,2.53
2022-08-30T05:26:31.696Z,2.50
2022-08-30T05:28:59.029Z,3.15
2022-08-30T05:31:31.071Z,2.72
2022-08-30T05:33:58.369Z,2.38
2022-08-30T05:36:29.150Z,3.10
2022-08-30T05:38:56.631Z,2.63
2022-08-30T05:41:26.720Z,2.90
2022-08-30T05:43:57.735Z,2.60
2022-08-30T05:46:28.813Z,2.60
2022-08-30T05:48:56.973Z,2.50
2022-08-30T05:51:28.727Z,2.60
2022-08-30T05:53:57.577Z,2.40
2022-08-30T05:56:30.158Z,2.95
2022-08-30T05:58:57.322Z,2.72
2022-08-30T06:01:28.817Z,2.58
2022-08-30T06:04:02.933Z,2.40
2022-08-30T06:09:00.443Z,2.70
2022-08-30T06:11:28.408Z,2.72
2022-08-30T06:13:56.141Z,2.60
2022-08-30T06:16:26.249Z,2.58
2022-08-30T06:18:55.733Z,3.03
2022-08-30T06:21:34.130Z,2.78
2022-08-30T06:24:03.121Z,2.58
2022-08-30T06:29:02.769Z,2.90
2022-08-30T06:31:29.730Z,2.67
2022-08-30T06:33:56.623Z,2.97
2022-08-30T06:36:26.507Z,2.50
2022-08-30T06:38:56.405Z,2.53
2022-08-30T06:41:28.365Z,2.38
2022-08-30T06:43:56.934Z,2.15
2022-08-30T06:46:32.411Z,2.70
2022-08-30T06:49:01.310Z,2.80
2022-08-30T06:51:34.772Z,2.38
2022-08-30T06:54:04.580Z,2.85
2022-08-30T06:56:31.655Z,2.90
2022-08-30T06:58:59.091Z,2.55
2022-08-30T07:01:28.689Z,2.33
2022-08-30T07:03:56.700Z,2.25
2022-08-30T07:06:25.526Z,2.78
2022-08-30T07:08:56.511Z,2.17
2022-08-30T07:11:41.879Z,2.50
2022-08-30T07:14:09.317Z,2.28
2022-08-30T07:16:36.648Z,2.10
2022-08-30T07:19:05.624Z,2.22
2022-08-30T07:21:40.372Z,2.20
2022-08-30T07:24:10.068Z,2.03
2022-08-30T07:26:42.479Z,1.90
2022-08-30T07:29:10.240Z,1.95
2022-08-30T07:31:50.565Z,2.13
2022-08-30T07:34:26.933Z,2.15
2022-08-30T07:36:54.784Z,1.95
2022-08-30T07:39:22.550Z,1.55
2022-08-30T07:41:50.748Z,1.92
2022-08-30T07:44:18.092Z,1.90
2022-08-30T07:46:45.080Z,2.00
2022-08-30T07:49:12.951Z,2.10
2022-08-30T07:51:41.236Z,2.00
2022-08-30T07:54:08.915Z,1.63
2022-08-30T07:56:35.941Z,1.73
2022-08-30T07:59:02.981Z,1.48
2022-08-30T08:01:30.428Z,1.38
2022-08-30T08:04:01.775Z,1.52
2022-08-30T08:06:29.802Z,1.50
2022-08-30T08:09:02.365Z,1.50
2022-08-30T08:11:33.693Z,1.45
2022-08-30T08:14:03.079Z,1.70
2022-08-30T08:16:33.293Z,1.95
2022-08-30T08:19:00.536Z,1.60
2022-08-30T08:21:28.296Z,1.33
2022-08-30T08:23:55.587Z,1.38
2022-08-30T08:26:23.378Z,1.80
2022-08-30T08:28:51.430Z,1.67
2022-08-30T08:31:28.765Z,1.40
2022-08-30T08:34:09.754Z,1.10
2022-08-30T08:36:37.448Z,1.35
2022-08-30T08:39:09.599Z,1.52
2022-08-30T08:42:16.967Z,1.20
2022-08-30T08:44:50.566Z,1.50
2022-08-30T08:48:05.290Z,1.05
2022-08-30T08:50:33.007Z,1.10
2022-08-30T08:53:49.652Z,1.50
2022-08-30T08:56:19.220Z,1.30
2022-08-30T08:58:54.763Z,1.15
2022-08-30T09:01:26.358Z,1.48
2022-08-30T09:03:54.503Z,1.30
2022-08-30T09:07:03.801Z,1.30
2022-08-30T09:09:40.240Z,1.08
2022-08-30T09:12:11.253Z,1.17
2022-08-30T09:14:47.724Z,1.27
2022-08-30T09:17:17.974Z,1.10
2022-08-30T09:19:58.598Z,1.08
2022-08-30T09:22:36.275Z,1.20
2022-08-30T09:25:13.511Z,1.00
2022-08-30T09:27:48.012Z,0.98
2022-08-30T09:30:25.599Z,1.35
2022-08-30T09:33:03.507Z,0.90
2022-08-30T09:35:47.077Z,1.25
2022-08-30T09:38:24.500Z,0.90
2022-08-30T09:40:58.926Z,1.02
2022-08-30T09:43:31.110Z,0.93
2022-08-30T09:46:02.336Z,1.00
2022-08-30T09:48:39.454Z,0.90
2022-08-30T09:51:12.045Z,1.08
2022-08-30T09:54:31.134Z,0.80
2022-08-30T09:57:33.536Z,1.10
2022-08-30T10:00:33.236Z,0.98
2022-08-30T10:03:46.476Z,1.05
2022-08-30T10:09:33.696Z,0.80
2022-08-30T10:12:28.467Z,0.75
2022-08-30T10:15:07.773Z,0.90
2022-08-30T10:18:05.803Z,1.17
2022-08-30T10:21:06.156Z,0.80
2022-08-30T10:23:44.574Z,0.60
2022-08-30T10:26:45.293Z,1.00
2022-08-30T10:29:19.343Z,1.02
2022-08-30T10:31:57.078Z,0.77
2022-08-30T10:34:40.935Z,0.98
2022-08-30T10:37:27.693Z,0.90
2022-08-30T10:40:28.444Z,0.68
2022-08-30T10:43:03.264Z,0.80
2022-08-30T10:48:24.916Z,0.75
2022-08-30T10:50:59.024Z,1.00
2022-08-30T10:53:39.472Z,1.08
2022-08-30T10:56:14.321Z,0.90
2022-08-30T10:58:43.055Z,0.70
2022-08-30T11:01:47.612Z,0.98
2022-08-30T11:04:40.070Z,0.98
2022-08-30T11:07:47.234Z,0.82
2022-08-30T11:10:37.889Z,0.85
2022-08-30T11:13:39.604Z,0.80
2022-08-30T11:16:16.730Z,0.93
2022-08-30T11:18:56.346Z,1.10
2022-08-30T11:21:39.013Z,0.95
2022-08-30T11:24:13.574Z,1.00
2022-08-30T11:29:42.723Z,0.85
2022-08-30T11:32:12.708Z,1.20
2022-08-30T11:34:48.193Z,1.10
2022-08-30T11:37:45.203Z,0.80
2022-08-30T11:40:24.416Z,0.90
2022-08-30T11:42:55.895Z,0.90
2022-08-30T11:45:25.469Z,0.80
2022-08-30T11:47:59.667Z,0.93
2022-08-30T11:50:36.629Z,1.13
2022-08-30T11:53:54.571Z,0.93
2022-08-30T11:57:01.491Z,1.10
2022-08-30T11:59:49.874Z,1.10
2022-08-30T12:02:59.364Z,1.10
2022-08-30T12:05:39.714Z,0.80
2022-08-30T12:08:28.419Z,0.90
2022-08-30T12:11:05.431Z,1.02
2022-08-30T12:13:38.008Z,1.10
2022-08-30T12:16:24.995Z,0.95
2022-08-30T12:19:00.122Z,0.90
2022-08-30T12:21:44.661Z,1.10
2022-08-30T12:27:42.578Z,1.25
2022-08-30T12:30:27.950Z,0.95
2022-08-30T12:32:55.407Z,1.13
2022-08-30T12:35:28.346Z,0.90
2022-08-30T12:38:05.805Z,1.10
2022-08-30T12:40:34.823Z,0.80
2022-08-30T12:43:22.428Z,1.15
2022-08-30T12:45:56.314Z,0.90
2022-08-30T12:48:25.111Z,1.08
2022-08-30T12:50:57.310Z,1.08
2022-08-30T12:53:32.149Z,1.10
2022-08-30T12:56:11.725Z,1.05
2022-08-30T12:58:53.327Z,0.80
2022-08-30T13:01:31.216Z,1.00
2022-08-30T13:04:00.401Z,1.05
2022-08-30T13:06:43.754Z,0.90
2022-08-30T13:09:43.975Z,0.90
2022-08-30T13:12:27.187Z,1.20
2022-08-30T13:15:19.879Z,0.85
2022-08-30T13:17:48.566Z,1.02
2022-08-30T13:20:36.253Z,1.33
2022-08-30T13:23:46.691Z,0.95
2022-08-30T13:26:26.728Z,0.90
2022-08-30T13:29:19.489Z,1.00
2022-08-30T13:31:47.590Z,1.08
2022-08-30T13:34:18.936Z,1.02
2022-08-30T13:36:54.586Z,1.13
2022-08-30T13:39:21.644Z,1.10
2022-08-30T13:41:50.407Z,1.00
2022-08-30T13:44:19.682Z,1.20
2022-08-30T13:46:55.364Z,1.10
2022-08-30T13:49:46.864Z,1.10
2022-08-30T13:52:25.687Z,1.38
2022-08-30T13:54:57.029Z,1.05
2022-08-30T14:00:21.838Z,1.10
2022-08-30T14:02:54.080Z,1.00
2022-08-30T14:06:09.917Z,1.00
2022-08-30T14:08:46.299Z,1.13
2022-08-30T14:11:19.750Z,1.17
2022-08-30T14:16:41.399Z,0.93
2022-08-30T14:19:12.576Z,1.05
2022-08-30T14:21:49.646Z,0.80
2022-08-30T14:24:21.645Z,1.20
2022-08-30T14:26:56.858Z,1.20
2022-08-30T14:29:30.664Z,1.30
2022-08-30T14:31:59.992Z,1.02
2022-08-30T14:34:27.020Z,1.00
2022-08-30T14:36:55.462Z,1.27
2022-08-30T14:39:23.147Z,1.30
2022-08-30T14:41:55.370Z,1.10
2022-08-30T14:44:28.341Z,1.30
2022-08-30T14:46:56.409Z,1.17
2022-08-30T14:49:24.708Z,1.00
2022-08-30T14:51:52.404Z,1.30
2022-08-30T14:54:25.573Z,1.00
2022-08-30T14:56:53.642Z,1.05
2022-08-30T14:59:21.791Z,1.20
2022-08-30T15:01:48.686Z,1.15
2022-08-30T15:04:17.085Z,1.10
2022-08-30T15:06:47.932Z,1.00
2022-08-30T15:09:23.221Z,1.00
2022-08-30T15:11:55.269Z,1.15
2022-08-30T15:14:26.218Z,1.13
2022-08-30T15:16:55.983Z,0.98
2022-08-30T15:19:23.183Z,1.17
2022-08-30T15:21:51.006Z,0.88
2022-08-30T15:24:29.354Z,1.08
2022-08-30T15:26:59.523Z,1.33
2022-08-30T15:29:28.016Z,1.13
2022-08-30T15:31:58.521Z,1.10
2022-08-30T15:34:26.165Z,1.00
2022-08-30T15:36:55.242Z,1.02
2022-08-30T15:39:22.662Z,0.80
2022-08-30T15:41:54.583Z,1.50
2022-08-30T15:44:24.255Z,1.10
2022-08-30T15:46:51.180Z,1.05
2022-08-30T15:49:23.702Z,1.00
2022-08-30T15:51:54.106Z,1.10
2022-08-30T15:54:24.067Z,1.00
2022-08-30T15:56:58.729Z,1.10
2022-08-30T16:01:57.914Z,0.98
2022-08-30T16:04:25.717Z,0.93
2022-08-30T16:06:53.244Z,0.93
2022-08-30T16:09:22.752Z,0.88
2022-08-30T16:11:50.611Z,1.00
2022-08-30T16:14:17.767Z,0.85
2022-08-30T16:16:46.389Z,0.90
2022-08-30T16:19:13.663Z,1.00
2022-08-30T16:21:41.620Z,1.00
2022-08-30T16:24:13.403Z,1.10
2022-08-30T16:26:43.034Z,0.88
2022-08-30T16:29:12.265Z,1.13
2022-08-30T16:31:40.287Z,1.10
2022-08-30T16:34:07.226Z,1.55
2022-08-30T16:36:35.866Z,1.05
2022-08-30T16:39:08.171Z,1.10
2022-08-30T16:41:36.873Z,1.10
2022-08-30T16:44:05.596Z,1.02
2022-08-30T16:46:34.340Z,0.95
2022-08-30T16:49:02.206Z,0.80
2022-08-30T16:51:32.958Z,1.15
2022-08-30T16:54:07.932Z,0.90
2022-08-30T16:56:36.680Z,1.10
2022-08-30T16:59:09.039Z,1.10
2022-08-30T17:01:38.875Z,1.10
2022-08-30T17:04:08.164Z,0.73
2022-08-30T17:06:36.270Z,0.98
2022-08-30T17:09:05.578Z,0.90
2022-08-30T17:11:37.922Z,1.00
2022-08-30T17:14:08.256Z,0.80
2022-08-30T17:16:37.103Z,1.00
2022-08-30T17:19:07.188Z,1.00
2022-08-30T17:21:35.212Z,0.82
2022-08-30T17:24:03.937Z,0.93
2022-08-30T17:26:33.712Z,0.90
2022-08-30T17:29:01.209Z,0.90
2022-08-30T17:31:30.409Z,1.00
2022-08-30T17:34:03.410Z,0.80
2022-08-30T17:36:36.196Z,1.15
2022-08-30T17:39:10.841Z,0.90
2022-08-30T17:41:45.605Z,1.10
2022-08-30T17:44:20.382Z,0.95
2022-08-30T17:46:47.389Z,1.08
2022-08-30T17:49:15.090Z,0.80
2022-08-30T17:51:43.492Z,0.98
2022-08-30T17:54:12.895Z,0.80
2022-08-30T17:56:42.292Z,0.77
2022-08-30T17:59:14.560Z,0.80
2022-08-30T18:01:44.018Z,1.23
2022-08-30T18:04:14.121Z,1.00
2022-08-30T18:06:47.406Z,1.10
2022-08-30T18:09:14.520Z,0.90
2022-08-30T18:11:41.479Z,0.98
2022-08-30T18:14:11.368Z,1.00
2022-08-30T18:16:53.748Z,1.10
2022-08-30T18:19:26.765Z,1.20
2022-08-30T18:21:55.166Z,1.10
2022-08-30T18:24:23.576Z,1.20
2022-08-30T18:26:52.388Z,0.90
2022-08-30T18:29:29.306Z,0.90
2022-08-30T18:32:02.628Z,1.00
2022-08-30T18:34:31.374Z,1.15
2022-08-30T18:36:58.441Z,1.38
2022-08-30T18:39:25.879Z,0.98
2022-08-30T18:41:54.587Z,1.35
2022-08-30T18:44:28.354Z,1.10
2022-08-30T18:46:57.965Z,1.20
2022-08-30T18:49:32.466Z,1.10
2022-08-30T18:54:27.842Z,1.15
2022-08-30T18:56:54.835Z,1.17
2022-08-30T18:59:21.770Z,0.85
2022-08-30T19:01:49.688Z,0.98
2022-08-30T19:04:29.571Z,0.90
2022-08-30T19:07:04.867Z,1.10
2022-08-30T19:09:31.909Z,1.08
2022-08-30T19:11:58.927Z,1.10
2022-08-30T19:14:28.202Z,0.90
2022-08-30T19:17:02.055Z,0.90
2022-08-30T19:19:32.778Z,1.35
2022-08-30T19:22:01.992Z,1.08
2022-08-30T19:24:29.037Z,1.13
2022-08-30T19:26:55.883Z,1.17
2022-08-30T19:29:23.315Z,0.98
2022-08-30T19:31:51.821Z,1.20
2022-08-30T19:34:19.276Z,1.00
2022-08-30T19:36:48.885Z,0.90
2022-08-30T19:39:15.787Z,8.15
2022-08-30T19:41:44.347Z,5.85
2022-08-30T19:44:11.233Z,7.75
2022-08-30T19:46:38.257Z,3.38
2022-08-30T19:49:07.031Z,1.73
2022-08-30T19:51:34.092Z,1.35
2022-08-30T19:54:03.170Z,1.20
2022-08-30T19:56:30.358Z,1.10
2022-08-30T19:58:57.310Z,1.75
2022-08-30T20:01:33.311Z,1.88
2022-08-30T20:04:01.986Z,1.40
2022-08-30T20:06:32.409Z,1.30
2022-08-30T20:09:00.719Z,1.17
2022-08-30T20:11:29.016Z,1.75
2022-08-30T20:13:56.929Z,1.98
2022-08-30T20:16:33.279Z,1.60
2022-08-30T20:19:07.660Z,1.25
2022-08-30T20:21:35.671Z,1.10
2022-08-30T20:24:04.174Z,1.10
2022-08-30T20:26:34.241Z,1.35
2022-08-30T20:29:04.227Z,1.10
2022-08-30T20:31:31.743Z,1.20
2022-08-30T20:33:58.741Z,1.10
2022-08-30T20:36:26.007Z,1.02
2022-08-30T20:38:53.190Z,1.13
2022-08-30T20:41:20.683Z,2.58
2022-08-30T20:43:49.431Z,2.47
2022-08-30T20:46:19.960Z,1.55
2022-08-30T20:48:47.631Z,1.27
2022-08-30T20:51:22.964Z,0.98
2022-08-30T20:53:50.614Z,1.30
2022-08-30T20:56:22.087Z,1.45
2022-08-30T20:58:50.481Z,1.40
2022-08-30T21:01:18.071Z,1.30
2022-08-30T21:03:49.193Z,1.30
2022-08-30T21:06:20.030Z,1.27
2022-08-30T21:08:47.216Z,1.10
2022-08-30T21:11:14.837Z,1.00
2022-08-30T21:13:52.115Z,1.35
2022-08-30T21:16:22.159Z,1.00
2022-08-30T21:18:49.572Z,1.05
2022-08-30T21:21:25.425Z,1.02
2022-08-30T21:23:58.367Z,1.15
2022-08-30T21:26:25.407Z,1.00
2022-08-30T21:28:56.265Z,1.02
2022-08-30T21:31:28.436Z,1.00
2022-08-30T21:33:56.534Z,0.90
2022-08-30T21:36:44.715Z,1.00
2022-08-30T21:39:24.773Z,1.00
2022-08-30T21:41:56.773Z,1.10
2022-08-30T21:44:27.115Z,1.00
2022-08-30T21:46:54.761Z,1.00
2022-08-30T21:49:24.254Z,0.98
2022-08-30T21:51:53.575Z,0.88
2022-08-30T21:54:21.859Z,1.08
2022-08-30T21:56:52.566Z,0.95
2022-08-30T21:59:21.287Z,1.02
2022-08-30T22:01:49.927Z,0.95
2022-08-30T22:04:16.934Z,1.00
2022-08-30T22:06:48.091Z,0.88
2022-08-30T22:09:19.032Z,1.13
2022-08-30T22:11:47.321Z,0.90
2022-08-30T22:14:15.459Z,1.00
2022-08-30T22:16:43.604Z,1.08
2022-08-30T22:19:11.538Z,0.80
2022-08-30T22:21:41.775Z,0.90
2022-08-30T22:24:10.806Z,1.00
2022-08-30T22:26:39.047Z,0.90
2022-08-30T22:29:08.782Z,1.00
2022-08-30T22:31:37.964Z,1.08
2022-08-30T22:34:10.132Z,1.00
2022-08-30T22:36:38.641Z,1.20
2022-08-30T22:39:09.014Z,1.02
2022-08-30T22:41:39.517Z,0.90
2022-08-30T22:44:06.464Z,1.00
2022-08-30T22:46:35.264Z,0.85
2022-08-30T22:49:04.850Z,1.17
2022-08-30T22:51:32.122Z,0.98
2022-08-30T22:54:00.859Z,1.02
2022-08-30T22:56:29.259Z,1.10
2022-08-30T22:58:56.665Z,1.33
2022-08-30T23:01:30.629Z,0.90
2022-08-30T23:04:00.972Z,1.10
2022-08-30T23:06:30.188Z,1.20
2022-08-30T23:08:57.876Z,1.25
2022-08-30T23:11:25.857Z,1.20
2022-08-30T23:13:53.799Z,1.00
2022-08-30T23:16:21.515Z,1.08
2022-08-30T23:18:49.080Z,1.20
2022-08-30T23:21:23.877Z,0.93
2022-08-30T23:24:12.246Z,1.00
2022-08-30T23:26:59.254Z,0.98
2022-08-30T23:29:44.914Z,0.80
2022-08-30T23:32:30.784Z,0.90
2022-08-30T23:35:16.308Z,0.90
2022-08-30T23:38:01.913Z,0.82
2022-08-30T23:40:47.252Z,1.50
2022-08-30T23:46:19.512Z,1.17
2022-08-30T23:49:07.731Z,1.00
2022-08-30T23:51:56.144Z,1.13
2022-08-30T23:54:42.856Z,1.02
2022-08-30T23:57:28.393Z,1.00
